CheckWX is a tool to help pilots better visualize weather data.  It is not intended as a substitute for an official pre-flight weather briefing.

10:34:29 UTC

KMKN METAR
Comanche County-City Airport
Comanche, Texas, USA
Current

19 mins ago

KMKN 191015Z AUTO 26004KT 10SM CLR 19/16 A2980 RMK AO2 T01860156
Observed
May-19 @ 10:15 UTC
Wind
  • 260° at 4 KTS
Visibility
10 SM
Flight Rules
VFR
Cloud Levels
  • Clear skies
Temperature
19°C / 66°F
Dewpoint
16°C / 61°F
Humidity
83%
Altimeter
29.8" Hg
Pressure
1009.12 hPa
Previous

39 mins ago

KMKN 190955Z AUTO 25006KT 10SM CLR 19/17 A2980 RMK AO2 T01860170
Observed
May-19 @ 09:55 UTC
Wind
  • 250° at 6 KTS
Visibility
10 SM
Flight Rules
VFR
Cloud Levels
  • Clear skies
Temperature
19°C / 66°F
Dewpoint
17°C / 63°F
Humidity
88%
Altimeter
29.8" Hg
Pressure
1009.12 hPa
Previous

59 mins ago

KMKN 190935Z AUTO 22004KT 10SM CLR 18/18 A2980 RMK AO2 T01840184
Observed
May-19 @ 09:35 UTC
Wind
  • 220° at 4 KTS
Visibility
10 SM
Flight Rules
VFR
Cloud Levels
  • Clear skies
Temperature
18°C / 64°F
Dewpoint
18°C / 64°F
Humidity
100%
Altimeter
29.8" Hg
Pressure
1009.12 hPa